<?xml version="1.0" encoding="UTF-8" standalone="no" ?>
<gpx xmlns="http://www.topografix.com/GPX/1/1" xmlns:xsi="http://www.w3.org/2001/XMLSchema-instance" xsi:schemaLocation="http://www.topografix.com/GPX/1/1 http://www.topografix.com/GPX/1/1/gpx.xsd" version="1.1" creator="VisuGPX - https://www.visugpx.com">
  <metadata>
    <name>reco st montant N3</name>
  </metadata>
  <trk>
    <name><![CDATA[reco st montant N3]]></name>
    <trkseg>
      <trkpt lat="44.43799" lon="4.62745">
        <ele>129</ele>
        <time>2022-01-25T08:10:40Z</time>
      </trkpt>
      <trkpt lat="44.43816" lon="4.62715">
        <ele>129</ele>
        <time>2022-01-25T08:18:03Z</time>
      </trkpt>
      <trkpt lat="44.43824" lon="4.62699">
        <ele>129</ele>
        <time>2022-01-25T08:18:45Z</time>
      </trkpt>
      <trkpt lat="44.43844" lon="4.62699">
        <ele>131</ele>
        <time>2022-01-25T08:19:02Z</time>
      </trkpt>
      <trkpt lat="44.43865" lon="4.62704">
        <ele>131</ele>
        <time>2022-01-25T08:19:20Z</time>
      </trkpt>
      <trkpt lat="44.43881" lon="4.62695">
        <ele>133</ele>
        <time>2022-01-25T08:19:37Z</time>
      </trkpt>
      <trkpt lat="44.43901" lon="4.62694">
        <ele>134</ele>
        <time>2022-01-25T08:19:55Z</time>
      </trkpt>
      <trkpt lat="44.43921" lon="4.62698">
        <ele>134</ele>
        <time>2022-01-25T08:20:11Z</time>
      </trkpt>
      <trkpt lat="44.43932" lon="4.62678">
        <ele>132</ele>
        <time>2022-01-25T08:20:30Z</time>
      </trkpt>
      <trkpt lat="44.43939" lon="4.62652">
        <ele>129</ele>
        <time>2022-01-25T08:20:47Z</time>
      </trkpt>
      <trkpt lat="44.43951" lon="4.62628">
        <ele>128</ele>
        <time>2022-01-25T08:21:05Z</time>
      </trkpt>
      <trkpt lat="44.43964" lon="4.62604">
        <ele>125</ele>
        <time>2022-01-25T08:21:22Z</time>
      </trkpt>
      <trkpt lat="44.43977" lon="4.62578">
        <ele>124</ele>
        <time>2022-01-25T08:21:41Z</time>
      </trkpt>
      <trkpt lat="44.43989" lon="4.62552">
        <ele>122</ele>
        <time>2022-01-25T08:21:59Z</time>
      </trkpt>
      <trkpt lat="44.43997" lon="4.62528">
        <ele>122</ele>
        <time>2022-01-25T08:22:15Z</time>
      </trkpt>
      <trkpt lat="44.44008" lon="4.62506">
        <ele>121</ele>
        <time>2022-01-25T08:22:30Z</time>
      </trkpt>
      <trkpt lat="44.44015" lon="4.62484">
        <ele>119</ele>
        <time>2022-01-25T08:22:48Z</time>
      </trkpt>
      <trkpt lat="44.44002" lon="4.62459">
        <ele>115</ele>
        <time>2022-01-25T08:23:13Z</time>
      </trkpt>
      <trkpt lat="44.43993" lon="4.62453">
        <ele>113</ele>
        <time>2022-01-25T08:23:54Z</time>
      </trkpt>
      <trkpt lat="44.44004" lon="4.62434">
        <ele>112</ele>
        <time>2022-01-25T08:24:48Z</time>
      </trkpt>
      <trkpt lat="44.43994" lon="4.62426">
        <ele>108</ele>
        <time>2022-01-25T08:25:30Z</time>
      </trkpt>
      <trkpt lat="44.43972" lon="4.62424">
        <ele>105</ele>
        <time>2022-01-25T08:25:52Z</time>
      </trkpt>
      <trkpt lat="44.43953" lon="4.6243">
        <ele>105</ele>
        <time>2022-01-25T08:26:08Z</time>
      </trkpt>
      <trkpt lat="44.43945" lon="4.624">
        <ele>106</ele>
        <time>2022-01-25T08:27:03Z</time>
      </trkpt>
      <trkpt lat="44.43924" lon="4.62415">
        <ele>104</ele>
        <time>2022-01-25T08:27:23Z</time>
      </trkpt>
      <trkpt lat="44.43905" lon="4.62427">
        <ele>104</ele>
        <time>2022-01-25T08:27:41Z</time>
      </trkpt>
      <trkpt lat="44.43891" lon="4.62452">
        <ele>105</ele>
        <time>2022-01-25T08:28:01Z</time>
      </trkpt>
      <trkpt lat="44.43873" lon="4.6247">
        <ele>103</ele>
        <time>2022-01-25T08:28:17Z</time>
      </trkpt>
      <trkpt lat="44.43853" lon="4.62472">
        <ele>103</ele>
        <time>2022-01-25T08:28:33Z</time>
      </trkpt>
      <trkpt lat="44.43833" lon="4.62462">
        <ele>102</ele>
        <time>2022-01-25T08:28:49Z</time>
      </trkpt>
      <trkpt lat="44.43754" lon="4.62421">
        <ele>100</ele>
        <time>2022-01-25T08:29:57Z</time>
      </trkpt>
      <trkpt lat="44.43615" lon="4.62343">
        <ele>107</ele>
        <time>2022-01-25T08:31:57Z</time>
      </trkpt>
      <trkpt lat="44.43584" lon="4.62314">
        <ele>110</ele>
        <time>2022-01-25T08:32:28Z</time>
      </trkpt>
      <trkpt lat="44.43529" lon="4.6226">
        <ele>113</ele>
        <time>2022-01-25T08:33:19Z</time>
      </trkpt>
      <trkpt lat="44.43508" lon="4.62236">
        <ele>113</ele>
        <time>2022-01-25T08:33:39Z</time>
      </trkpt>
      <trkpt lat="44.4348" lon="4.62205">
        <ele>115</ele>
        <time>2022-01-25T08:34:09Z</time>
      </trkpt>
      <trkpt lat="44.43446" lon="4.62165">
        <ele>120</ele>
        <time>2022-01-25T08:34:48Z</time>
      </trkpt>
      <trkpt lat="44.43428" lon="4.62144">
        <ele>118</ele>
        <time>2022-01-25T08:35:04Z</time>
      </trkpt>
      <trkpt lat="44.43411" lon="4.62132">
        <ele>116</ele>
        <time>2022-01-25T08:35:18Z</time>
      </trkpt>
      <trkpt lat="44.43393" lon="4.6212">
        <ele>116</ele>
        <time>2022-01-25T08:35:33Z</time>
      </trkpt>
      <trkpt lat="44.43383" lon="4.62101">
        <ele>114</ele>
        <time>2022-01-25T08:35:47Z</time>
      </trkpt>
      <trkpt lat="44.43379" lon="4.62075">
        <ele>113</ele>
        <time>2022-01-25T08:36:03Z</time>
      </trkpt>
      <trkpt lat="44.43361" lon="4.62077">
        <ele>113</ele>
        <time>2022-01-25T08:36:26Z</time>
      </trkpt>
      <trkpt lat="44.43339" lon="4.62082">
        <ele>113</ele>
        <time>2022-01-25T08:36:44Z</time>
      </trkpt>
      <trkpt lat="44.43321" lon="4.62071">
        <ele>113</ele>
        <time>2022-01-25T08:36:59Z</time>
      </trkpt>
      <trkpt lat="44.43305" lon="4.62058">
        <ele>112</ele>
        <time>2022-01-25T08:37:14Z</time>
      </trkpt>
      <trkpt lat="44.43286" lon="4.62047">
        <ele>110</ele>
        <time>2022-01-25T08:37:30Z</time>
      </trkpt>
      <trkpt lat="44.43268" lon="4.62048">
        <ele>110</ele>
        <time>2022-01-25T08:37:44Z</time>
      </trkpt>
      <trkpt lat="44.43249" lon="4.62054">
        <ele>108</ele>
        <time>2022-01-25T08:37:58Z</time>
      </trkpt>
      <trkpt lat="44.4323" lon="4.6206">
        <ele>106</ele>
        <time>2022-01-25T08:38:13Z</time>
      </trkpt>
      <trkpt lat="44.43211" lon="4.62068">
        <ele>105</ele>
        <time>2022-01-25T08:38:28Z</time>
      </trkpt>
      <trkpt lat="44.43192" lon="4.62073">
        <ele>104</ele>
        <time>2022-01-25T08:38:43Z</time>
      </trkpt>
      <trkpt lat="44.43174" lon="4.62081">
        <ele>103</ele>
        <time>2022-01-25T08:38:59Z</time>
      </trkpt>
      <trkpt lat="44.43153" lon="4.62089">
        <ele>102</ele>
        <time>2022-01-25T08:39:18Z</time>
      </trkpt>
      <trkpt lat="44.43127" lon="4.62093">
        <ele>101</ele>
        <time>2022-01-25T08:39:43Z</time>
      </trkpt>
      <trkpt lat="44.43114" lon="4.62066">
        <ele>101</ele>
        <time>2022-01-25T08:40:00Z</time>
      </trkpt>
      <trkpt lat="44.43111" lon="4.62038">
        <ele>101</ele>
        <time>2022-01-25T08:40:16Z</time>
      </trkpt>
      <trkpt lat="44.43111" lon="4.62009">
        <ele>101</ele>
        <time>2022-01-25T08:40:33Z</time>
      </trkpt>
      <trkpt lat="44.43109" lon="4.61979">
        <ele>99</ele>
        <time>2022-01-25T08:40:49Z</time>
      </trkpt>
      <trkpt lat="44.43098" lon="4.61949">
        <ele>99</ele>
        <time>2022-01-25T08:41:10Z</time>
      </trkpt>
      <trkpt lat="44.4309" lon="4.61936">
        <ele>100</ele>
        <time>2022-01-25T08:41:46Z</time>
      </trkpt>
      <trkpt lat="44.43087" lon="4.61913">
        <ele>100</ele>
        <time>2022-01-25T08:42:00Z</time>
      </trkpt>
      <trkpt lat="44.43085" lon="4.61887">
        <ele>100</ele>
        <time>2022-01-25T08:42:13Z</time>
      </trkpt>
      <trkpt lat="44.43086" lon="4.61861">
        <ele>99</ele>
        <time>2022-01-25T08:42:27Z</time>
      </trkpt>
      <trkpt lat="44.43088" lon="4.61834">
        <ele>98</ele>
        <time>2022-01-25T08:42:41Z</time>
      </trkpt>
      <trkpt lat="44.43099" lon="4.61815">
        <ele>98</ele>
        <time>2022-01-25T08:42:56Z</time>
      </trkpt>
      <trkpt lat="44.43113" lon="4.61796">
        <ele>98</ele>
        <time>2022-01-25T08:43:23Z</time>
      </trkpt>
      <trkpt lat="44.43102" lon="4.61781">
        <ele>98</ele>
        <time>2022-01-25T08:43:37Z</time>
      </trkpt>
      <trkpt lat="44.43089" lon="4.61764">
        <ele>100</ele>
        <time>2022-01-25T08:43:52Z</time>
      </trkpt>
      <trkpt lat="44.43075" lon="4.61746">
        <ele>103</ele>
        <time>2022-01-25T08:44:10Z</time>
      </trkpt>
      <trkpt lat="44.43037" lon="4.61704">
        <ele>107</ele>
        <time>2022-01-25T08:44:57Z</time>
      </trkpt>
      <trkpt lat="44.43014" lon="4.61684">
        <ele>110</ele>
        <time>2022-01-25T08:45:23Z</time>
      </trkpt>
      <trkpt lat="44.42988" lon="4.61615">
        <ele>117</ele>
        <time>2022-01-25T08:46:24Z</time>
      </trkpt>
      <trkpt lat="44.42973" lon="4.61591">
        <ele>118</ele>
        <time>2022-01-25T08:46:44Z</time>
      </trkpt>
      <trkpt lat="44.42963" lon="4.61568">
        <ele>119</ele>
        <time>2022-01-25T08:47:00Z</time>
      </trkpt>
      <trkpt lat="44.42955" lon="4.61545">
        <ele>120</ele>
        <time>2022-01-25T08:47:14Z</time>
      </trkpt>
      <trkpt lat="44.42948" lon="4.61523">
        <ele>120</ele>
        <time>2022-01-25T08:47:28Z</time>
      </trkpt>
      <trkpt lat="44.42938" lon="4.61485">
        <ele>119</ele>
        <time>2022-01-25T08:49:10Z</time>
      </trkpt>
      <trkpt lat="44.42928" lon="4.61461">
        <ele>118</ele>
        <time>2022-01-25T08:49:26Z</time>
      </trkpt>
      <trkpt lat="44.42915" lon="4.61434">
        <ele>116</ele>
        <time>2022-01-25T08:49:46Z</time>
      </trkpt>
      <trkpt lat="44.42888" lon="4.61386">
        <ele>113</ele>
        <time>2022-01-25T08:50:21Z</time>
      </trkpt>
      <trkpt lat="44.42878" lon="4.6136">
        <ele>115</ele>
        <time>2022-01-25T08:50:39Z</time>
      </trkpt>
      <trkpt lat="44.42869" lon="4.61336">
        <ele>115</ele>
        <time>2022-01-25T08:51:00Z</time>
      </trkpt>
      <trkpt lat="44.42772" lon="4.61044">
        <ele>131</ele>
        <time>2022-01-25T08:55:22Z</time>
      </trkpt>
      <trkpt lat="44.42593" lon="4.60654">
        <ele>167</ele>
        <time>2022-01-25T09:02:48Z</time>
      </trkpt>
      <trkpt lat="44.42378" lon="4.60168">
        <ele>231</ele>
        <time>2022-01-25T09:19:19Z</time>
      </trkpt>
      <trkpt lat="44.42432" lon="4.60185">
        <ele>226</ele>
        <time>2022-01-25T09:20:24Z</time>
      </trkpt>
      <trkpt lat="44.42437" lon="4.60171">
        <ele>220</ele>
        <time>2022-01-25T09:22:04Z</time>
      </trkpt>
      <trkpt lat="44.42409" lon="4.60151">
        <ele>217</ele>
        <time>2022-01-25T09:22:41Z</time>
      </trkpt>
      <trkpt lat="44.42387" lon="4.60106">
        <ele>212</ele>
        <time>2022-01-25T09:23:25Z</time>
      </trkpt>
      <trkpt lat="44.42377" lon="4.60067">
        <ele>210</ele>
        <time>2022-01-25T09:23:52Z</time>
      </trkpt>
      <trkpt lat="44.42366" lon="4.6001">
        <ele>205</ele>
        <time>2022-01-25T09:24:40Z</time>
      </trkpt>
      <trkpt lat="44.42368" lon="4.59938">
        <ele>198</ele>
        <time>2022-01-25T09:25:34Z</time>
      </trkpt>
      <trkpt lat="44.42372" lon="4.59876">
        <ele>193</ele>
        <time>2022-01-25T09:26:25Z</time>
      </trkpt>
      <trkpt lat="44.42446" lon="4.59757">
        <ele>187</ele>
        <time>2022-01-25T09:28:23Z</time>
      </trkpt>
      <trkpt lat="44.42486" lon="4.59752">
        <ele>184</ele>
        <time>2022-01-25T09:30:38Z</time>
      </trkpt>
      <trkpt lat="44.42537" lon="4.59728">
        <ele>181</ele>
        <time>2022-01-25T09:31:39Z</time>
      </trkpt>
      <trkpt lat="44.42486" lon="4.59427">
        <ele>181</ele>
        <time>2022-01-25T09:35:42Z</time>
      </trkpt>
      <trkpt lat="44.42324" lon="4.59196">
        <ele>181</ele>
        <time>2022-01-25T09:40:26Z</time>
      </trkpt>
      <trkpt lat="44.41779" lon="4.58859">
        <ele>260</ele>
        <time>2022-01-25T09:58:28Z</time>
      </trkpt>
      <trkpt lat="44.41704" lon="4.59177">
        <ele>330</ele>
        <time>2022-01-25T10:18:02Z</time>
      </trkpt>
      <trkpt lat="44.41687" lon="4.59191">
        <ele>330</ele>
        <time>2022-01-25T10:18:22Z</time>
      </trkpt>
      <trkpt lat="44.41644" lon="4.59269">
        <ele>332</ele>
        <time>2022-01-25T10:19:32Z</time>
      </trkpt>
      <trkpt lat="44.41631" lon="4.59252">
        <ele>332</ele>
        <time>2022-01-25T10:21:09Z</time>
      </trkpt>
      <trkpt lat="44.41612" lon="4.59229">
        <ele>331</ele>
        <time>2022-01-25T10:21:34Z</time>
      </trkpt>
      <trkpt lat="44.41591" lon="4.59211">
        <ele>330</ele>
        <time>2022-01-25T10:21:55Z</time>
      </trkpt>
      <trkpt lat="44.41569" lon="4.59206">
        <ele>329</ele>
        <time>2022-01-25T10:22:16Z</time>
      </trkpt>
      <trkpt lat="44.41547" lon="4.59195">
        <ele>327</ele>
        <time>2022-01-25T10:22:36Z</time>
      </trkpt>
      <trkpt lat="44.41523" lon="4.59181">
        <ele>326</ele>
        <time>2022-01-25T10:22:56Z</time>
      </trkpt>
      <trkpt lat="44.41503" lon="4.59171">
        <ele>325</ele>
        <time>2022-01-25T10:23:14Z</time>
      </trkpt>
      <trkpt lat="44.4148" lon="4.59163">
        <ele>324</ele>
        <time>2022-01-25T10:23:31Z</time>
      </trkpt>
      <trkpt lat="44.41461" lon="4.59167">
        <ele>323</ele>
        <time>2022-01-25T10:23:47Z</time>
      </trkpt>
      <trkpt lat="44.41442" lon="4.59169">
        <ele>322</ele>
        <time>2022-01-25T10:24:02Z</time>
      </trkpt>
      <trkpt lat="44.41421" lon="4.59168">
        <ele>321</ele>
        <time>2022-01-25T10:24:17Z</time>
      </trkpt>
      <trkpt lat="44.41403" lon="4.59165">
        <ele>319</ele>
        <time>2022-01-25T10:24:32Z</time>
      </trkpt>
      <trkpt lat="44.4138" lon="4.59159">
        <ele>318</ele>
        <time>2022-01-25T10:24:48Z</time>
      </trkpt>
      <trkpt lat="44.41355" lon="4.59143">
        <ele>317</ele>
        <time>2022-01-25T10:25:07Z</time>
      </trkpt>
      <trkpt lat="44.41353" lon="4.59101">
        <ele>319</ele>
        <time>2022-01-25T10:25:33Z</time>
      </trkpt>
      <trkpt lat="44.41358" lon="4.59061">
        <ele>324</ele>
        <time>2022-01-25T10:26:06Z</time>
      </trkpt>
      <trkpt lat="44.41359" lon="4.59025">
        <ele>327</ele>
        <time>2022-01-25T10:26:31Z</time>
      </trkpt>
      <trkpt lat="44.41349" lon="4.58997">
        <ele>330</ele>
        <time>2022-01-25T10:26:53Z</time>
      </trkpt>
      <trkpt lat="44.41328" lon="4.5898">
        <ele>333</ele>
        <time>2022-01-25T10:27:17Z</time>
      </trkpt>
      <trkpt lat="44.41311" lon="4.58962">
        <ele>336</ele>
        <time>2022-01-25T10:27:39Z</time>
      </trkpt>
      <trkpt lat="44.41295" lon="4.58942">
        <ele>337</ele>
        <time>2022-01-25T10:28:02Z</time>
      </trkpt>
      <trkpt lat="44.41278" lon="4.58925">
        <ele>338</ele>
        <time>2022-01-25T10:28:20Z</time>
      </trkpt>
      <trkpt lat="44.41261" lon="4.58908">
        <ele>339</ele>
        <time>2022-01-25T10:28:39Z</time>
      </trkpt>
      <trkpt lat="44.41241" lon="4.58884">
        <ele>340</ele>
        <time>2022-01-25T10:29:16Z</time>
      </trkpt>
      <trkpt lat="44.41229" lon="4.58863">
        <ele>341</ele>
        <time>2022-01-25T10:29:37Z</time>
      </trkpt>
      <trkpt lat="44.41215" lon="4.58839">
        <ele>339</ele>
        <time>2022-01-25T10:29:55Z</time>
      </trkpt>
      <trkpt lat="44.41189" lon="4.58807">
        <ele>339</ele>
        <time>2022-01-25T10:32:52Z</time>
      </trkpt>
      <trkpt lat="44.41167" lon="4.58793">
        <ele>338</ele>
        <time>2022-01-25T10:33:31Z</time>
      </trkpt>
      <trkpt lat="44.41149" lon="4.58779">
        <ele>336</ele>
        <time>2022-01-25T10:33:50Z</time>
      </trkpt>
      <trkpt lat="44.4113" lon="4.58762">
        <ele>333</ele>
        <time>2022-01-25T10:34:08Z</time>
      </trkpt>
      <trkpt lat="44.41113" lon="4.58741">
        <ele>331</ele>
        <time>2022-01-25T10:34:26Z</time>
      </trkpt>
      <trkpt lat="44.41108" lon="4.5871">
        <ele>329</ele>
        <time>2022-01-25T10:34:48Z</time>
      </trkpt>
      <trkpt lat="44.41116" lon="4.58684">
        <ele>329</ele>
        <time>2022-01-25T10:35:07Z</time>
      </trkpt>
      <trkpt lat="44.4111" lon="4.58649">
        <ele>333</ele>
        <time>2022-01-25T10:35:30Z</time>
      </trkpt>
      <trkpt lat="44.41107" lon="4.58614">
        <ele>337</ele>
        <time>2022-01-25T10:36:09Z</time>
      </trkpt>
      <trkpt lat="44.41111" lon="4.58577">
        <ele>341</ele>
        <time>2022-01-25T10:36:39Z</time>
      </trkpt>
      <trkpt lat="44.41116" lon="4.58544">
        <ele>344</ele>
        <time>2022-01-25T10:37:04Z</time>
      </trkpt>
      <trkpt lat="44.41122" lon="4.58512">
        <ele>347</ele>
        <time>2022-01-25T10:37:29Z</time>
      </trkpt>
      <trkpt lat="44.41127" lon="4.58495">
        <ele>350</ele>
        <time>2022-01-25T10:38:16Z</time>
      </trkpt>
      <trkpt lat="44.4114" lon="4.58489">
        <ele>350</ele>
        <time>2022-01-25T10:39:18Z</time>
      </trkpt>
      <trkpt lat="44.41156" lon="4.5849">
        <ele>350</ele>
        <time>2022-01-25T10:39:43Z</time>
      </trkpt>
      <trkpt lat="44.41138" lon="4.58491">
        <ele>350</ele>
        <time>2022-01-25T10:40:05Z</time>
      </trkpt>
      <trkpt lat="44.41119" lon="4.58495">
        <ele>350</ele>
        <time>2022-01-25T10:40:30Z</time>
      </trkpt>
      <trkpt lat="44.41119" lon="4.58451">
        <ele>352</ele>
        <time>2022-01-25T10:41:23Z</time>
      </trkpt>
      <trkpt lat="44.41131" lon="4.58296">
        <ele>350</ele>
        <time>2022-01-25T10:43:12Z</time>
      </trkpt>
      <trkpt lat="44.41132" lon="4.58248">
        <ele>348</ele>
        <time>2022-01-25T10:43:45Z</time>
      </trkpt>
      <trkpt lat="44.41138" lon="4.58217">
        <ele>347</ele>
        <time>2022-01-25T10:44:09Z</time>
      </trkpt>
      <trkpt lat="44.41141" lon="4.58179">
        <ele>344</ele>
        <time>2022-01-25T10:44:35Z</time>
      </trkpt>
      <trkpt lat="44.41142" lon="4.5814">
        <ele>342</ele>
        <time>2022-01-25T10:45:00Z</time>
      </trkpt>
      <trkpt lat="44.41144" lon="4.581">
        <ele>341</ele>
        <time>2022-01-25T10:45:25Z</time>
      </trkpt>
      <trkpt lat="44.41148" lon="4.58064">
        <ele>339</ele>
        <time>2022-01-25T10:45:48Z</time>
      </trkpt>
      <trkpt lat="44.4115" lon="4.58028">
        <ele>338</ele>
        <time>2022-01-25T10:46:14Z</time>
      </trkpt>
      <trkpt lat="44.41149" lon="4.57992">
        <ele>338</ele>
        <time>2022-01-25T10:46:35Z</time>
      </trkpt>
      <trkpt lat="44.41156" lon="4.57949">
        <ele>334</ele>
        <time>2022-01-25T10:47:02Z</time>
      </trkpt>
      <trkpt lat="44.41158" lon="4.57919">
        <ele>333</ele>
        <time>2022-01-25T10:47:20Z</time>
      </trkpt>
      <trkpt lat="44.41161" lon="4.57892">
        <ele>331</ele>
        <time>2022-01-25T10:47:35Z</time>
      </trkpt>
      <trkpt lat="44.41163" lon="4.57857">
        <ele>332</ele>
        <time>2022-01-25T10:47:59Z</time>
      </trkpt>
      <trkpt lat="44.41165" lon="4.57822">
        <ele>335</ele>
        <time>2022-01-25T10:48:22Z</time>
      </trkpt>
      <trkpt lat="44.4117" lon="4.57788">
        <ele>336</ele>
        <time>2022-01-25T10:48:45Z</time>
      </trkpt>
      <trkpt lat="44.41173" lon="4.57753">
        <ele>337</ele>
        <time>2022-01-25T10:49:07Z</time>
      </trkpt>
      <trkpt lat="44.41176" lon="4.57715">
        <ele>337</ele>
        <time>2022-01-25T10:50:28Z</time>
      </trkpt>
      <trkpt lat="44.41179" lon="4.57681">
        <ele>337</ele>
        <time>2022-01-25T10:50:48Z</time>
      </trkpt>
      <trkpt lat="44.4118" lon="4.5765">
        <ele>337</ele>
        <time>2022-01-25T10:51:05Z</time>
      </trkpt>
      <trkpt lat="44.41184" lon="4.57623">
        <ele>337</ele>
        <time>2022-01-25T10:51:22Z</time>
      </trkpt>
      <trkpt lat="44.41184" lon="4.57592">
        <ele>336</ele>
        <time>2022-01-25T10:51:40Z</time>
      </trkpt>
      <trkpt lat="44.4119" lon="4.57554">
        <ele>335</ele>
        <time>2022-01-25T10:52:09Z</time>
      </trkpt>
      <trkpt lat="44.41189" lon="4.57518">
        <ele>334</ele>
        <time>2022-01-25T10:52:35Z</time>
      </trkpt>
      <trkpt lat="44.4119" lon="4.57476">
        <ele>333</ele>
        <time>2022-01-25T10:53:07Z</time>
      </trkpt>
      <trkpt lat="44.41197" lon="4.57431">
        <ele>334</ele>
        <time>2022-01-25T10:53:37Z</time>
      </trkpt>
      <trkpt lat="44.41201" lon="4.57381">
        <ele>336</ele>
        <time>2022-01-25T10:54:14Z</time>
      </trkpt>
      <trkpt lat="44.41205" lon="4.57344">
        <ele>337</ele>
        <time>2022-01-25T10:54:39Z</time>
      </trkpt>
      <trkpt lat="44.41209" lon="4.57297">
        <ele>338</ele>
        <time>2022-01-25T10:55:11Z</time>
      </trkpt>
      <trkpt lat="44.41214" lon="4.5725">
        <ele>336</ele>
        <time>2022-01-25T10:55:40Z</time>
      </trkpt>
      <trkpt lat="44.41216" lon="4.57197">
        <ele>335</ele>
        <time>2022-01-25T10:56:13Z</time>
      </trkpt>
      <trkpt lat="44.41208" lon="4.57153">
        <ele>336</ele>
        <time>2022-01-25T10:56:46Z</time>
      </trkpt>
      <trkpt lat="44.41204" lon="4.57106">
        <ele>338</ele>
        <time>2022-01-25T10:57:18Z</time>
      </trkpt>
      <trkpt lat="44.41225" lon="4.57069">
        <ele>337</ele>
        <time>2022-01-25T10:57:38Z</time>
      </trkpt>
      <trkpt lat="44.4123" lon="4.57031">
        <ele>337</ele>
        <time>2022-01-25T10:58:04Z</time>
      </trkpt>
      <trkpt lat="44.41235" lon="4.56936">
        <ele>339</ele>
        <time>2022-01-25T10:59:58Z</time>
      </trkpt>
      <trkpt lat="44.41239" lon="4.56886">
        <ele>340</ele>
        <time>2022-01-25T11:00:29Z</time>
      </trkpt>
      <trkpt lat="44.41242" lon="4.56844">
        <ele>339</ele>
        <time>2022-01-25T11:00:55Z</time>
      </trkpt>
      <trkpt lat="44.41258" lon="4.56814">
        <ele>339</ele>
        <time>2022-01-25T11:01:20Z</time>
      </trkpt>
      <trkpt lat="44.41271" lon="4.5678">
        <ele>338</ele>
        <time>2022-01-25T11:01:43Z</time>
      </trkpt>
      <trkpt lat="44.4129" lon="4.56759">
        <ele>337</ele>
        <time>2022-01-25T11:02:05Z</time>
      </trkpt>
      <trkpt lat="44.41311" lon="4.56742">
        <ele>336</ele>
        <time>2022-01-25T11:02:29Z</time>
      </trkpt>
      <trkpt lat="44.41327" lon="4.56715">
        <ele>334</ele>
        <time>2022-01-25T11:02:52Z</time>
      </trkpt>
      <trkpt lat="44.41351" lon="4.56677">
        <ele>331</ele>
        <time>2022-01-25T11:03:26Z</time>
      </trkpt>
      <trkpt lat="44.41362" lon="4.56634">
        <ele>329</ele>
        <time>2022-01-25T11:03:55Z</time>
      </trkpt>
      <trkpt lat="44.41372" lon="4.56588">
        <ele>326</ele>
        <time>2022-01-25T11:05:08Z</time>
      </trkpt>
      <trkpt lat="44.4138" lon="4.56553">
        <ele>326</ele>
        <time>2022-01-25T11:05:30Z</time>
      </trkpt>
      <trkpt lat="44.4138" lon="4.56513">
        <ele>326</ele>
        <time>2022-01-25T11:05:55Z</time>
      </trkpt>
      <trkpt lat="44.41385" lon="4.56484">
        <ele>327</ele>
        <time>2022-01-25T11:06:16Z</time>
      </trkpt>
      <trkpt lat="44.41395" lon="4.56461">
        <ele>329</ele>
        <time>2022-01-25T11:06:34Z</time>
      </trkpt>
      <trkpt lat="44.41401" lon="4.56438">
        <ele>330</ele>
        <time>2022-01-25T11:06:49Z</time>
      </trkpt>
      <trkpt lat="44.41408" lon="4.56415">
        <ele>329</ele>
        <time>2022-01-25T11:07:05Z</time>
      </trkpt>
      <trkpt lat="44.41412" lon="4.56385">
        <ele>328</ele>
        <time>2022-01-25T11:07:28Z</time>
      </trkpt>
      <trkpt lat="44.41432" lon="4.56379">
        <ele>326</ele>
        <time>2022-01-25T11:08:04Z</time>
      </trkpt>
      <trkpt lat="44.41461" lon="4.56382">
        <ele>325</ele>
        <time>2022-01-25T11:08:31Z</time>
      </trkpt>
      <trkpt lat="44.41487" lon="4.56381">
        <ele>322</ele>
        <time>2022-01-25T11:08:53Z</time>
      </trkpt>
      <trkpt lat="44.41513" lon="4.56378">
        <ele>321</ele>
        <time>2022-01-25T11:09:17Z</time>
      </trkpt>
      <trkpt lat="44.41541" lon="4.56387">
        <ele>319</ele>
        <time>2022-01-25T11:09:44Z</time>
      </trkpt>
      <trkpt lat="44.4157" lon="4.56398">
        <ele>317</ele>
        <time>2022-01-25T11:10:12Z</time>
      </trkpt>
      <trkpt lat="44.41593" lon="4.56422">
        <ele>314</ele>
        <time>2022-01-25T11:10:40Z</time>
      </trkpt>
      <trkpt lat="44.41615" lon="4.56454">
        <ele>311</ele>
        <time>2022-01-25T11:11:26Z</time>
      </trkpt>
      <trkpt lat="44.41637" lon="4.56484">
        <ele>310</ele>
        <time>2022-01-25T11:11:52Z</time>
      </trkpt>
      <trkpt lat="44.41661" lon="4.5649">
        <ele>307</ele>
        <time>2022-01-25T11:12:23Z</time>
      </trkpt>
      <trkpt lat="44.41682" lon="4.56483">
        <ele>302</ele>
        <time>2022-01-25T11:12:54Z</time>
      </trkpt>
      <trkpt lat="44.41719" lon="4.56474">
        <ele>286</ele>
        <time>2022-01-25T11:14:49Z</time>
      </trkpt>
      <trkpt lat="44.41741" lon="4.5651">
        <ele>280</ele>
        <time>2022-01-25T11:15:27Z</time>
      </trkpt>
      <trkpt lat="44.41801" lon="4.56516">
        <ele>257</ele>
        <time>2022-01-25T11:18:51Z</time>
      </trkpt>
      <trkpt lat="44.41875" lon="4.56549">
        <ele>291</ele>
        <time>2022-01-25T11:52:56Z</time>
      </trkpt>
      <trkpt lat="44.42046" lon="4.56479">
        <ele>327</ele>
        <time>2022-01-25T11:58:19Z</time>
      </trkpt>
      <trkpt lat="44.42085" lon="4.56477">
        <ele>332</ele>
        <time>2022-01-25T12:00:30Z</time>
      </trkpt>
      <trkpt lat="44.42116" lon="4.56475">
        <ele>333</ele>
        <time>2022-01-25T12:01:00Z</time>
      </trkpt>
      <trkpt lat="44.42137" lon="4.56479">
        <ele>334</ele>
        <time>2022-01-25T12:01:19Z</time>
      </trkpt>
      <trkpt lat="44.4216" lon="4.56478">
        <ele>335</ele>
        <time>2022-01-25T12:01:40Z</time>
      </trkpt>
      <trkpt lat="44.42178" lon="4.56499">
        <ele>335</ele>
        <time>2022-01-25T12:02:02Z</time>
      </trkpt>
      <trkpt lat="44.422" lon="4.56508">
        <ele>337</ele>
        <time>2022-01-25T12:02:25Z</time>
      </trkpt>
      <trkpt lat="44.42234" lon="4.56502">
        <ele>337</ele>
        <time>2022-01-25T12:03:00Z</time>
      </trkpt>
      <trkpt lat="44.42273" lon="4.56476">
        <ele>339</ele>
        <time>2022-01-25T12:03:42Z</time>
      </trkpt>
      <trkpt lat="44.42286" lon="4.56447">
        <ele>340</ele>
        <time>2022-01-25T12:04:03Z</time>
      </trkpt>
      <trkpt lat="44.42295" lon="4.56415">
        <ele>340</ele>
        <time>2022-01-25T12:04:25Z</time>
      </trkpt>
      <trkpt lat="44.42309" lon="4.56382">
        <ele>340</ele>
        <time>2022-01-25T12:04:47Z</time>
      </trkpt>
      <trkpt lat="44.42327" lon="4.56359">
        <ele>342</ele>
        <time>2022-01-25T12:05:09Z</time>
      </trkpt>
      <trkpt lat="44.42347" lon="4.56344">
        <ele>343</ele>
        <time>2022-01-25T12:05:30Z</time>
      </trkpt>
      <trkpt lat="44.42368" lon="4.56334">
        <ele>344</ele>
        <time>2022-01-25T12:05:49Z</time>
      </trkpt>
      <trkpt lat="44.42387" lon="4.56326">
        <ele>344</ele>
        <time>2022-01-25T12:06:05Z</time>
      </trkpt>
      <trkpt lat="44.42406" lon="4.56315">
        <ele>344</ele>
        <time>2022-01-25T12:06:24Z</time>
      </trkpt>
      <trkpt lat="44.42426" lon="4.56304">
        <ele>345</ele>
        <time>2022-01-25T12:06:44Z</time>
      </trkpt>
      <trkpt lat="44.42447" lon="4.56289">
        <ele>346</ele>
        <time>2022-01-25T12:07:06Z</time>
      </trkpt>
      <trkpt lat="44.42468" lon="4.5628">
        <ele>347</ele>
        <time>2022-01-25T12:07:26Z</time>
      </trkpt>
      <trkpt lat="44.42489" lon="4.56269">
        <ele>347</ele>
        <time>2022-01-25T12:07:45Z</time>
      </trkpt>
      <trkpt lat="44.4251" lon="4.56257">
        <ele>348</ele>
        <time>2022-01-25T12:08:06Z</time>
      </trkpt>
      <trkpt lat="44.42531" lon="4.56247">
        <ele>348</ele>
        <time>2022-01-25T12:08:25Z</time>
      </trkpt>
      <trkpt lat="44.42553" lon="4.56244">
        <ele>349</ele>
        <time>2022-01-25T12:09:19Z</time>
      </trkpt>
      <trkpt lat="44.42573" lon="4.56244">
        <ele>348</ele>
        <time>2022-01-25T12:12:00Z</time>
      </trkpt>
      <trkpt lat="44.42592" lon="4.56245">
        <ele>346</ele>
        <time>2022-01-25T12:12:14Z</time>
      </trkpt>
      <trkpt lat="44.42613" lon="4.56238">
        <ele>346</ele>
        <time>2022-01-25T12:12:31Z</time>
      </trkpt>
      <trkpt lat="44.42629" lon="4.56258">
        <ele>345</ele>
        <time>2022-01-25T12:12:50Z</time>
      </trkpt>
      <trkpt lat="44.42645" lon="4.56277">
        <ele>343</ele>
        <time>2022-01-25T12:13:06Z</time>
      </trkpt>
      <trkpt lat="44.42667" lon="4.5628">
        <ele>342</ele>
        <time>2022-01-25T12:13:22Z</time>
      </trkpt>
      <trkpt lat="44.42687" lon="4.56282">
        <ele>342</ele>
        <time>2022-01-25T12:13:38Z</time>
      </trkpt>
      <trkpt lat="44.42707" lon="4.56281">
        <ele>342</ele>
        <time>2022-01-25T12:13:54Z</time>
      </trkpt>
      <trkpt lat="44.42727" lon="4.56281">
        <ele>340</ele>
        <time>2022-01-25T12:14:09Z</time>
      </trkpt>
      <trkpt lat="44.42747" lon="4.56288">
        <ele>339</ele>
        <time>2022-01-25T12:14:26Z</time>
      </trkpt>
      <trkpt lat="44.42764" lon="4.56309">
        <ele>339</ele>
        <time>2022-01-25T12:14:44Z</time>
      </trkpt>
      <trkpt lat="44.42788" lon="4.56327">
        <ele>338</ele>
        <time>2022-01-25T12:15:05Z</time>
      </trkpt>
      <trkpt lat="44.42818" lon="4.56347">
        <ele>338</ele>
        <time>2022-01-25T12:15:30Z</time>
      </trkpt>
      <trkpt lat="44.42839" lon="4.56367">
        <ele>337</ele>
        <time>2022-01-25T12:15:49Z</time>
      </trkpt>
      <trkpt lat="44.42856" lon="4.56395">
        <ele>338</ele>
        <time>2022-01-25T12:16:09Z</time>
      </trkpt>
      <trkpt lat="44.42869" lon="4.56418">
        <ele>340</ele>
        <time>2022-01-25T12:16:26Z</time>
      </trkpt>
      <trkpt lat="44.42882" lon="4.56442">
        <ele>341</ele>
        <time>2022-01-25T12:16:45Z</time>
      </trkpt>
      <trkpt lat="44.42896" lon="4.56463">
        <ele>344</ele>
        <time>2022-01-25T12:17:04Z</time>
      </trkpt>
      <trkpt lat="44.42914" lon="4.56466">
        <ele>346</ele>
        <time>2022-01-25T12:17:21Z</time>
      </trkpt>
      <trkpt lat="44.42933" lon="4.56472">
        <ele>346</ele>
        <time>2022-01-25T12:17:37Z</time>
      </trkpt>
      <trkpt lat="44.42946" lon="4.56491">
        <ele>346</ele>
        <time>2022-01-25T12:17:52Z</time>
      </trkpt>
      <trkpt lat="44.42954" lon="4.56513">
        <ele>346</ele>
        <time>2022-01-25T12:18:07Z</time>
      </trkpt>
      <trkpt lat="44.42965" lon="4.56547">
        <ele>346</ele>
        <time>2022-01-25T12:18:29Z</time>
      </trkpt>
      <trkpt lat="44.42969" lon="4.56583">
        <ele>347</ele>
        <time>2022-01-25T12:18:50Z</time>
      </trkpt>
      <trkpt lat="44.42982" lon="4.56614">
        <ele>347</ele>
        <time>2022-01-25T12:19:10Z</time>
      </trkpt>
      <trkpt lat="44.42999" lon="4.56617">
        <ele>348</ele>
        <time>2022-01-25T12:19:25Z</time>
      </trkpt>
      <trkpt lat="44.43019" lon="4.56614">
        <ele>348</ele>
        <time>2022-01-25T12:19:43Z</time>
      </trkpt>
      <trkpt lat="44.43044" lon="4.5662">
        <ele>345</ele>
        <time>2022-01-25T12:20:03Z</time>
      </trkpt>
      <trkpt lat="44.43066" lon="4.56628">
        <ele>345</ele>
        <time>2022-01-25T12:20:20Z</time>
      </trkpt>
      <trkpt lat="44.43087" lon="4.56637">
        <ele>344</ele>
        <time>2022-01-25T12:20:36Z</time>
      </trkpt>
      <trkpt lat="44.43108" lon="4.56646">
        <ele>344</ele>
        <time>2022-01-25T12:20:53Z</time>
      </trkpt>
      <trkpt lat="44.4313" lon="4.56654">
        <ele>344</ele>
        <time>2022-01-25T12:21:10Z</time>
      </trkpt>
      <trkpt lat="44.4315" lon="4.56664">
        <ele>344</ele>
        <time>2022-01-25T12:21:28Z</time>
      </trkpt>
      <trkpt lat="44.43157" lon="4.56693">
        <ele>345</ele>
        <time>2022-01-25T12:21:49Z</time>
      </trkpt>
      <trkpt lat="44.43161" lon="4.56721">
        <ele>345</ele>
        <time>2022-01-25T12:22:06Z</time>
      </trkpt>
      <trkpt lat="44.43166" lon="4.56749">
        <ele>347</ele>
        <time>2022-01-25T12:22:24Z</time>
      </trkpt>
      <trkpt lat="44.43171" lon="4.56775">
        <ele>347</ele>
        <time>2022-01-25T12:22:42Z</time>
      </trkpt>
      <trkpt lat="44.43175" lon="4.56802">
        <ele>348</ele>
        <time>2022-01-25T12:22:59Z</time>
      </trkpt>
      <trkpt lat="44.43177" lon="4.56827">
        <ele>348</ele>
        <time>2022-01-25T12:23:29Z</time>
      </trkpt>
      <trkpt lat="44.43181" lon="4.56856">
        <ele>348</ele>
        <time>2022-01-25T12:23:47Z</time>
      </trkpt>
      <trkpt lat="44.43189" lon="4.56884">
        <ele>348</ele>
        <time>2022-01-25T12:24:05Z</time>
      </trkpt>
      <trkpt lat="44.43191" lon="4.56913">
        <ele>348</ele>
        <time>2022-01-25T12:24:22Z</time>
      </trkpt>
      <trkpt lat="44.4318" lon="4.56932">
        <ele>347</ele>
        <time>2022-01-25T12:24:36Z</time>
      </trkpt>
      <trkpt lat="44.43166" lon="4.56951">
        <ele>347</ele>
        <time>2022-01-25T12:24:51Z</time>
      </trkpt>
      <trkpt lat="44.43152" lon="4.56973">
        <ele>346</ele>
        <time>2022-01-25T12:25:08Z</time>
      </trkpt>
      <trkpt lat="44.43144" lon="4.56999">
        <ele>346</ele>
        <time>2022-01-25T12:25:25Z</time>
      </trkpt>
      <trkpt lat="44.43143" lon="4.57029">
        <ele>346</ele>
        <time>2022-01-25T12:25:41Z</time>
      </trkpt>
      <trkpt lat="44.43132" lon="4.57068">
        <ele>345</ele>
        <time>2022-01-25T12:26:05Z</time>
      </trkpt>
      <trkpt lat="44.43113" lon="4.57088">
        <ele>345</ele>
        <time>2022-01-25T12:26:22Z</time>
      </trkpt>
      <trkpt lat="44.43088" lon="4.57102">
        <ele>345</ele>
        <time>2022-01-25T12:26:46Z</time>
      </trkpt>
      <trkpt lat="44.43086" lon="4.57128">
        <ele>346</ele>
        <time>2022-01-25T12:27:02Z</time>
      </trkpt>
      <trkpt lat="44.43087" lon="4.57163">
        <ele>347</ele>
        <time>2022-01-25T12:27:22Z</time>
      </trkpt>
      <trkpt lat="44.43088" lon="4.57193">
        <ele>348</ele>
        <time>2022-01-25T12:27:40Z</time>
      </trkpt>
      <trkpt lat="44.43091" lon="4.57224">
        <ele>348</ele>
        <time>2022-01-25T12:28:06Z</time>
      </trkpt>
      <trkpt lat="44.43102" lon="4.5725">
        <ele>349</ele>
        <time>2022-01-25T12:28:24Z</time>
      </trkpt>
      <trkpt lat="44.43115" lon="4.57268">
        <ele>349</ele>
        <time>2022-01-25T12:28:35Z</time>
      </trkpt>
      <trkpt lat="44.43126" lon="4.57286">
        <ele>349</ele>
        <time>2022-01-25T12:28:52Z</time>
      </trkpt>
      <trkpt lat="44.43134" lon="4.57323">
        <ele>348</ele>
        <time>2022-01-25T12:30:08Z</time>
      </trkpt>
      <trkpt lat="44.43141" lon="4.57358">
        <ele>347</ele>
        <time>2022-01-25T12:30:30Z</time>
      </trkpt>
      <trkpt lat="44.43154" lon="4.57387">
        <ele>347</ele>
        <time>2022-01-25T12:30:49Z</time>
      </trkpt>
      <trkpt lat="44.4316" lon="4.57419">
        <ele>346</ele>
        <time>2022-01-25T12:31:08Z</time>
      </trkpt>
      <trkpt lat="44.43151" lon="4.57445">
        <ele>345</ele>
        <time>2022-01-25T12:31:25Z</time>
      </trkpt>
      <trkpt lat="44.43145" lon="4.5747">
        <ele>345</ele>
        <time>2022-01-25T12:31:43Z</time>
      </trkpt>
      <trkpt lat="44.43138" lon="4.57499">
        <ele>344</ele>
        <time>2022-01-25T12:32:13Z</time>
      </trkpt>
      <trkpt lat="44.43145" lon="4.57523">
        <ele>344</ele>
        <time>2022-01-25T12:32:41Z</time>
      </trkpt>
      <trkpt lat="44.43155" lon="4.57546">
        <ele>343</ele>
        <time>2022-01-25T12:32:58Z</time>
      </trkpt>
      <trkpt lat="44.43167" lon="4.57572">
        <ele>343</ele>
        <time>2022-01-25T12:33:18Z</time>
      </trkpt>
      <trkpt lat="44.43179" lon="4.57601">
        <ele>343</ele>
        <time>2022-01-25T12:33:38Z</time>
      </trkpt>
      <trkpt lat="44.43187" lon="4.57626">
        <ele>343</ele>
        <time>2022-01-25T12:33:55Z</time>
      </trkpt>
      <trkpt lat="44.43193" lon="4.57654">
        <ele>343</ele>
        <time>2022-01-25T12:34:14Z</time>
      </trkpt>
      <trkpt lat="44.43193" lon="4.57688">
        <ele>342</ele>
        <time>2022-01-25T12:34:59Z</time>
      </trkpt>
      <trkpt lat="44.4321" lon="4.57697">
        <ele>344</ele>
        <time>2022-01-25T12:35:23Z</time>
      </trkpt>
      <trkpt lat="44.43227" lon="4.57696">
        <ele>345</ele>
        <time>2022-01-25T12:35:38Z</time>
      </trkpt>
      <trkpt lat="44.43247" lon="4.5769">
        <ele>345</ele>
        <time>2022-01-25T12:36:10Z</time>
      </trkpt>
      <trkpt lat="44.43243" lon="4.57694">
        <ele>345</ele>
        <time>2022-01-25T12:36:37Z</time>
      </trkpt>
      <trkpt lat="44.43236" lon="4.57718">
        <ele>345</ele>
        <time>2022-01-25T12:36:58Z</time>
      </trkpt>
      <trkpt lat="44.43235" lon="4.57739">
        <ele>345</ele>
        <time>2022-01-25T12:37:28Z</time>
      </trkpt>
      <trkpt lat="44.43237" lon="4.57707">
        <ele>345</ele>
        <time>2022-01-25T12:37:52Z</time>
      </trkpt>
      <trkpt lat="44.43254" lon="4.57685">
        <ele>345</ele>
        <time>2022-01-25T12:38:15Z</time>
      </trkpt>
      <trkpt lat="44.43271" lon="4.57668">
        <ele>346</ele>
        <time>2022-01-25T12:38:35Z</time>
      </trkpt>
      <trkpt lat="44.43306" lon="4.57619">
        <ele>347</ele>
        <time>2022-01-25T12:39:21Z</time>
      </trkpt>
      <trkpt lat="44.43326" lon="4.57612">
        <ele>347</ele>
        <time>2022-01-25T12:39:40Z</time>
      </trkpt>
      <trkpt lat="44.43305" lon="4.57618">
        <ele>347</ele>
        <time>2022-01-25T12:41:32Z</time>
      </trkpt>
      <trkpt lat="44.43277" lon="4.57654">
        <ele>347</ele>
        <time>2022-01-25T12:42:08Z</time>
      </trkpt>
      <trkpt lat="44.43258" lon="4.57683">
        <ele>346</ele>
        <time>2022-01-25T12:42:28Z</time>
      </trkpt>
      <trkpt lat="44.43237" lon="4.57694">
        <ele>346</ele>
        <time>2022-01-25T12:42:50Z</time>
      </trkpt>
      <trkpt lat="44.43214" lon="4.577">
        <ele>344</ele>
        <time>2022-01-25T12:43:11Z</time>
      </trkpt>
      <trkpt lat="44.43198" lon="4.57718">
        <ele>343</ele>
        <time>2022-01-25T12:43:31Z</time>
      </trkpt>
      <trkpt lat="44.43196" lon="4.57746">
        <ele>343</ele>
        <time>2022-01-25T12:43:48Z</time>
      </trkpt>
      <trkpt lat="44.43196" lon="4.57775">
        <ele>342</ele>
        <time>2022-01-25T12:44:05Z</time>
      </trkpt>
      <trkpt lat="44.43204" lon="4.57801">
        <ele>342</ele>
        <time>2022-01-25T12:44:22Z</time>
      </trkpt>
      <trkpt lat="44.43217" lon="4.57825">
        <ele>342</ele>
        <time>2022-01-25T12:44:42Z</time>
      </trkpt>
      <trkpt lat="44.43231" lon="4.57865">
        <ele>343</ele>
        <time>2022-01-25T12:46:06Z</time>
      </trkpt>
      <trkpt lat="44.43221" lon="4.57918">
        <ele>341</ele>
        <time>2022-01-25T12:46:47Z</time>
      </trkpt>
      <trkpt lat="44.43219" lon="4.57949">
        <ele>341</ele>
        <time>2022-01-25T12:47:09Z</time>
      </trkpt>
      <trkpt lat="44.43224" lon="4.57979">
        <ele>340</ele>
        <time>2022-01-25T12:47:28Z</time>
      </trkpt>
      <trkpt lat="44.43224" lon="4.58012">
        <ele>339</ele>
        <time>2022-01-25T12:47:48Z</time>
      </trkpt>
      <trkpt lat="44.43219" lon="4.58051">
        <ele>339</ele>
        <time>2022-01-25T12:48:16Z</time>
      </trkpt>
      <trkpt lat="44.43217" lon="4.58145">
        <ele>335</ele>
        <time>2022-01-25T12:49:31Z</time>
      </trkpt>
      <trkpt lat="44.43219" lon="4.58179">
        <ele>336</ele>
        <time>2022-01-25T12:49:52Z</time>
      </trkpt>
      <trkpt lat="44.4322" lon="4.58209">
        <ele>337</ele>
        <time>2022-01-25T12:50:18Z</time>
      </trkpt>
      <trkpt lat="44.43214" lon="4.58259">
        <ele>339</ele>
        <time>2022-01-25T12:50:56Z</time>
      </trkpt>
      <trkpt lat="44.43225" lon="4.58282">
        <ele>339</ele>
        <time>2022-01-25T12:51:15Z</time>
      </trkpt>
      <trkpt lat="44.43235" lon="4.58304">
        <ele>340</ele>
        <time>2022-01-25T12:51:43Z</time>
      </trkpt>
      <trkpt lat="44.43231" lon="4.58337">
        <ele>340</ele>
        <time>2022-01-25T12:52:06Z</time>
      </trkpt>
      <trkpt lat="44.43221" lon="4.5837">
        <ele>340</ele>
        <time>2022-01-25T12:52:30Z</time>
      </trkpt>
      <trkpt lat="44.43214" lon="4.58402">
        <ele>340</ele>
        <time>2022-01-25T12:52:50Z</time>
      </trkpt>
      <trkpt lat="44.43201" lon="4.58431">
        <ele>339</ele>
        <time>2022-01-25T12:53:12Z</time>
      </trkpt>
      <trkpt lat="44.43217" lon="4.58435">
        <ele>339</ele>
        <time>2022-01-25T12:54:45Z</time>
      </trkpt>
      <trkpt lat="44.4325" lon="4.58382">
        <ele>341</ele>
        <time>2022-01-25T12:55:35Z</time>
      </trkpt>
      <trkpt lat="44.43248" lon="4.58404">
        <ele>341</ele>
        <time>2022-01-25T12:56:14Z</time>
      </trkpt>
      <trkpt lat="44.43232" lon="4.58423">
        <ele>341</ele>
        <time>2022-01-25T12:56:34Z</time>
      </trkpt>
      <trkpt lat="44.43214" lon="4.58435">
        <ele>339</ele>
        <time>2022-01-25T12:56:49Z</time>
      </trkpt>
      <trkpt lat="44.43206" lon="4.58457">
        <ele>339</ele>
        <time>2022-01-25T12:57:09Z</time>
      </trkpt>
      <trkpt lat="44.43218" lon="4.58474">
        <ele>338</ele>
        <time>2022-01-25T12:57:32Z</time>
      </trkpt>
      <trkpt lat="44.43237" lon="4.58479">
        <ele>337</ele>
        <time>2022-01-25T12:57:51Z</time>
      </trkpt>
      <trkpt lat="44.43255" lon="4.5848">
        <ele>336</ele>
        <time>2022-01-25T12:58:06Z</time>
      </trkpt>
      <trkpt lat="44.43654" lon="4.58649">
        <ele>257</ele>
        <time>2022-01-25T13:07:59Z</time>
      </trkpt>
      <trkpt lat="44.43657" lon="4.58681">
        <ele>255</ele>
        <time>2022-01-25T13:08:23Z</time>
      </trkpt>
      <trkpt lat="44.43653" lon="4.58714">
        <ele>253</ele>
        <time>2022-01-25T13:08:43Z</time>
      </trkpt>
      <trkpt lat="44.43655" lon="4.58734">
        <ele>252</ele>
        <time>2022-01-25T13:08:54Z</time>
      </trkpt>
      <trkpt lat="44.43656" lon="4.58755">
        <ele>252</ele>
        <time>2022-01-25T13:09:05Z</time>
      </trkpt>
      <trkpt lat="44.43654" lon="4.58787">
        <ele>249</ele>
        <time>2022-01-25T13:09:24Z</time>
      </trkpt>
      <trkpt lat="44.43653" lon="4.58814">
        <ele>247</ele>
        <time>2022-01-25T13:09:41Z</time>
      </trkpt>
      <trkpt lat="44.43658" lon="4.58843">
        <ele>245</ele>
        <time>2022-01-25T13:09:59Z</time>
      </trkpt>
      <trkpt lat="44.43675" lon="4.58865">
        <ele>246</ele>
        <time>2022-01-25T13:10:18Z</time>
      </trkpt>
      <trkpt lat="44.43692" lon="4.58877">
        <ele>246</ele>
        <time>2022-01-25T13:10:30Z</time>
      </trkpt>
      <trkpt lat="44.43709" lon="4.58906">
        <ele>246</ele>
        <time>2022-01-25T13:10:55Z</time>
      </trkpt>
      <trkpt lat="44.43717" lon="4.5894">
        <ele>246</ele>
        <time>2022-01-25T13:11:19Z</time>
      </trkpt>
      <trkpt lat="44.43805" lon="4.59007">
        <ele>243</ele>
        <time>2022-01-25T13:19:29Z</time>
      </trkpt>
      <trkpt lat="44.43717" lon="4.58957">
        <ele>239</ele>
        <time>2022-01-25T13:24:34Z</time>
      </trkpt>
      <trkpt lat="44.43677" lon="4.58988">
        <ele>244</ele>
        <time>2022-01-25T13:26:05Z</time>
      </trkpt>
      <trkpt lat="44.43641" lon="4.5895">
        <ele>248</ele>
        <time>2022-01-25T13:26:57Z</time>
      </trkpt>
      <trkpt lat="44.4349" lon="4.59063">
        <ele>230</ele>
        <time>2022-01-25T13:29:57Z</time>
      </trkpt>
      <trkpt lat="44.43325" lon="4.59289">
        <ele>225</ele>
        <time>2022-01-25T13:34:05Z</time>
      </trkpt>
      <trkpt lat="44.43304" lon="4.59401">
        <ele>226</ele>
        <time>2022-01-25T13:35:35Z</time>
      </trkpt>
      <trkpt lat="44.43339" lon="4.59502">
        <ele>221</ele>
        <time>2022-01-25T13:37:01Z</time>
      </trkpt>
      <trkpt lat="44.43372" lon="4.59756">
        <ele>216</ele>
        <time>2022-01-25T13:40:55Z</time>
      </trkpt>
      <trkpt lat="44.43393" lon="4.59802">
        <ele>218</ele>
        <time>2022-01-25T13:41:34Z</time>
      </trkpt>
      <trkpt lat="44.43405" lon="4.59838">
        <ele>219</ele>
        <time>2022-01-25T13:42:06Z</time>
      </trkpt>
      <trkpt lat="44.43412" lon="4.59916">
        <ele>218</ele>
        <time>2022-01-25T13:43:19Z</time>
      </trkpt>
      <trkpt lat="44.43419" lon="4.5996">
        <ele>215</ele>
        <time>2022-01-25T13:43:48Z</time>
      </trkpt>
      <trkpt lat="44.43423" lon="4.60005">
        <ele>210</ele>
        <time>2022-01-25T13:44:27Z</time>
      </trkpt>
      <trkpt lat="44.43397" lon="4.60056">
        <ele>207</ele>
        <time>2022-01-25T13:45:13Z</time>
      </trkpt>
      <trkpt lat="44.43386" lon="4.6012">
        <ele>206</ele>
        <time>2022-01-25T13:46:32Z</time>
      </trkpt>
      <trkpt lat="44.43305" lon="4.60221">
        <ele>205</ele>
        <time>2022-01-25T13:54:15Z</time>
      </trkpt>
      <trkpt lat="44.43303" lon="4.60226">
        <ele>206</ele>
        <time>2022-01-25T13:55:33Z</time>
      </trkpt>
      <trkpt lat="44.43296" lon="4.60254">
        <ele>209</ele>
        <time>2022-01-25T13:56:13Z</time>
      </trkpt>
      <trkpt lat="44.43302" lon="4.60251">
        <ele>209</ele>
        <time>2022-01-25T14:02:07Z</time>
      </trkpt>
      <trkpt lat="44.43318" lon="4.60531">
        <ele>165</ele>
        <time>2022-01-25T14:08:04Z</time>
      </trkpt>
      <trkpt lat="44.43366" lon="4.60609">
        <ele>160</ele>
        <time>2022-01-25T14:09:24Z</time>
      </trkpt>
      <trkpt lat="44.43369" lon="4.60646">
        <ele>156</ele>
        <time>2022-01-25T14:09:55Z</time>
      </trkpt>
      <trkpt lat="44.43399" lon="4.60681">
        <ele>148</ele>
        <time>2022-01-25T14:10:57Z</time>
      </trkpt>
      <trkpt lat="44.43458" lon="4.60818">
        <ele>144</ele>
        <time>2022-01-25T14:13:27Z</time>
      </trkpt>
      <trkpt lat="44.43482" lon="4.60841">
        <ele>147</ele>
        <time>2022-01-25T14:14:58Z</time>
      </trkpt>
      <trkpt lat="44.43493" lon="4.60869">
        <ele>148</ele>
        <time>2022-01-25T14:15:23Z</time>
      </trkpt>
      <trkpt lat="44.43511" lon="4.60895">
        <ele>148</ele>
        <time>2022-01-25T14:15:53Z</time>
      </trkpt>
      <trkpt lat="44.43527" lon="4.60914">
        <ele>148</ele>
        <time>2022-01-25T14:18:32Z</time>
      </trkpt>
      <trkpt lat="44.43559" lon="4.60939">
        <ele>149</ele>
        <time>2022-01-25T14:21:22Z</time>
      </trkpt>
      <trkpt lat="44.43599" lon="4.61012">
        <ele>150</ele>
        <time>2022-01-25T14:22:27Z</time>
      </trkpt>
      <trkpt lat="44.43616" lon="4.61106">
        <ele>154</ele>
        <time>2022-01-25T14:23:33Z</time>
      </trkpt>
      <trkpt lat="44.43643" lon="4.61198">
        <ele>158</ele>
        <time>2022-01-25T14:24:42Z</time>
      </trkpt>
      <trkpt lat="44.43738" lon="4.61369">
        <ele>178</ele>
        <time>2022-01-25T14:28:00Z</time>
      </trkpt>
      <trkpt lat="44.43745" lon="4.61498">
        <ele>186</ele>
        <time>2022-01-25T14:29:44Z</time>
      </trkpt>
      <trkpt lat="44.43732" lon="4.61595">
        <ele>180</ele>
        <time>2022-01-25T14:31:47Z</time>
      </trkpt>
      <trkpt lat="44.43713" lon="4.61689">
        <ele>180</ele>
        <time>2022-01-25T14:33:17Z</time>
      </trkpt>
      <trkpt lat="44.43693" lon="4.61711">
        <ele>180</ele>
        <time>2022-01-25T14:33:51Z</time>
      </trkpt>
      <trkpt lat="44.43688" lon="4.61736">
        <ele>177</ele>
        <time>2022-01-25T14:34:14Z</time>
      </trkpt>
      <trkpt lat="44.43705" lon="4.61783">
        <ele>172</ele>
        <time>2022-01-25T14:34:52Z</time>
      </trkpt>
      <trkpt lat="44.43722" lon="4.61809">
        <ele>170</ele>
        <time>2022-01-25T14:35:13Z</time>
      </trkpt>
      <trkpt lat="44.43735" lon="4.61835">
        <ele>165</ele>
        <time>2022-01-25T14:35:36Z</time>
      </trkpt>
      <trkpt lat="44.43744" lon="4.61864">
        <ele>162</ele>
        <time>2022-01-25T14:35:56Z</time>
      </trkpt>
      <trkpt lat="44.43749" lon="4.61913">
        <ele>159</ele>
        <time>2022-01-25T14:36:31Z</time>
      </trkpt>
      <trkpt lat="44.43775" lon="4.61926">
        <ele>159</ele>
        <time>2022-01-25T14:37:09Z</time>
      </trkpt>
      <trkpt lat="44.43818" lon="4.61907">
        <ele>153</ele>
        <time>2022-01-25T14:37:57Z</time>
      </trkpt>
      <trkpt lat="44.43856" lon="4.61889">
        <ele>145</ele>
        <time>2022-01-25T14:38:36Z</time>
      </trkpt>
      <trkpt lat="44.43876" lon="4.61919">
        <ele>142</ele>
        <time>2022-01-25T14:39:00Z</time>
      </trkpt>
      <trkpt lat="44.43891" lon="4.61948">
        <ele>139</ele>
        <time>2022-01-25T14:39:22Z</time>
      </trkpt>
      <trkpt lat="44.43904" lon="4.61979">
        <ele>135</ele>
        <time>2022-01-25T14:39:44Z</time>
      </trkpt>
      <trkpt lat="44.43921" lon="4.62001">
        <ele>132</ele>
        <time>2022-01-25T14:40:06Z</time>
      </trkpt>
      <trkpt lat="44.43942" lon="4.62028">
        <ele>128</ele>
        <time>2022-01-25T14:40:31Z</time>
      </trkpt>
      <trkpt lat="44.43941" lon="4.62059">
        <ele>125</ele>
        <time>2022-01-25T14:40:50Z</time>
      </trkpt>
      <trkpt lat="44.43939" lon="4.62098">
        <ele>122</ele>
        <time>2022-01-25T14:41:20Z</time>
      </trkpt>
      <trkpt lat="44.43949" lon="4.62123">
        <ele>120</ele>
        <time>2022-01-25T14:41:38Z</time>
      </trkpt>
      <trkpt lat="44.43971" lon="4.6214">
        <ele>119</ele>
        <time>2022-01-25T14:42:09Z</time>
      </trkpt>
      <trkpt lat="44.43993" lon="4.62151">
        <ele>119</ele>
        <time>2022-01-25T14:42:28Z</time>
      </trkpt>
      <trkpt lat="44.44011" lon="4.62168">
        <ele>117</ele>
        <time>2022-01-25T14:42:56Z</time>
      </trkpt>
      <trkpt lat="44.44042" lon="4.62249">
        <ele>106</ele>
        <time>2022-01-25T14:44:06Z</time>
      </trkpt>
      <trkpt lat="44.44027" lon="4.62297">
        <ele>106</ele>
        <time>2022-01-25T14:46:20Z</time>
      </trkpt>
      <trkpt lat="44.44031" lon="4.62358">
        <ele>107</ele>
        <time>2022-01-25T14:47:11Z</time>
      </trkpt>
      <trkpt lat="44.44048" lon="4.62406">
        <ele>107</ele>
        <time>2022-01-25T14:47:46Z</time>
      </trkpt>
      <trkpt lat="44.44093" lon="4.62408">
        <ele>107</ele>
        <time>2022-01-25T14:48:48Z</time>
      </trkpt>
      <trkpt lat="44.44114" lon="4.62416">
        <ele>109</ele>
        <time>2022-01-25T14:49:03Z</time>
      </trkpt>
      <trkpt lat="44.44131" lon="4.62423">
        <ele>112</ele>
        <time>2022-01-25T14:49:24Z</time>
      </trkpt>
      <trkpt lat="44.44148" lon="4.62441">
        <ele>116</ele>
        <time>2022-01-25T14:49:53Z</time>
      </trkpt>
      <trkpt lat="44.44129" lon="4.62428">
        <ele>113</ele>
        <time>2022-01-25T14:50:48Z</time>
      </trkpt>
      <trkpt lat="44.44093" lon="4.62405">
        <ele>107</ele>
        <time>2022-01-25T14:51:18Z</time>
      </trkpt>
      <trkpt lat="44.44064" lon="4.62439">
        <ele>106</ele>
        <time>2022-01-25T14:51:56Z</time>
      </trkpt>
      <trkpt lat="44.4401" lon="4.62504">
        <ele>115</ele>
        <time>2022-01-25T14:53:17Z</time>
      </trkpt>
      <trkpt lat="44.43994" lon="4.62535">
        <ele>116</ele>
        <time>2022-01-25T14:53:36Z</time>
      </trkpt>
      <trkpt lat="44.43982" lon="4.62562">
        <ele>117</ele>
        <time>2022-01-25T14:53:55Z</time>
      </trkpt>
      <trkpt lat="44.43972" lon="4.62588">
        <ele>117</ele>
        <time>2022-01-25T14:54:13Z</time>
      </trkpt>
      <trkpt lat="44.43959" lon="4.62611">
        <ele>119</ele>
        <time>2022-01-25T14:54:31Z</time>
      </trkpt>
      <trkpt lat="44.43947" lon="4.62635">
        <ele>121</ele>
        <time>2022-01-25T14:54:52Z</time>
      </trkpt>
      <trkpt lat="44.43933" lon="4.62669">
        <ele>124</ele>
        <time>2022-01-25T14:55:21Z</time>
      </trkpt>
      <trkpt lat="44.43925" lon="4.62695">
        <ele>127</ele>
        <time>2022-01-25T14:55:43Z</time>
      </trkpt>
      <trkpt lat="44.43903" lon="4.62693">
        <ele>127</ele>
        <time>2022-01-25T14:56:01Z</time>
      </trkpt>
      <trkpt lat="44.43883" lon="4.62691">
        <ele>128</ele>
        <time>2022-01-25T14:56:20Z</time>
      </trkpt>
      <trkpt lat="44.43864" lon="4.62699">
        <ele>125</ele>
        <time>2022-01-25T14:56:38Z</time>
      </trkpt>
      <trkpt lat="44.43842" lon="4.62701">
        <ele>124</ele>
        <time>2022-01-25T14:56:55Z</time>
      </trkpt>
      <trkpt lat="44.43823" lon="4.62701">
        <ele>123</ele>
        <time>2022-01-25T14:57:12Z</time>
      </trkpt>
    </trkseg>
  </trk>
</gpx>